Time,TemperatureF,DewpointF,PressureIn,WindDirection,WindDirectionDegrees,WindSpeedMPH,WindSpeedGustMPH,Humidity,HourlyPrecipIn,Conditions,Clouds,dailyrainin,SoftwareType,DateUTC
2013-06-15 00:01:00,58.8,49.8,30.02,NNE,22,0.0,0.0,72,0.00,,SKC,0.00,VWS V14.01,2013-06-15 04:01:00,
2013-06-15 00:06:00,58.6,49.6,30.02,NNE,22,0.0,0.0,72,0.00,,SKC,0.00,VWS V14.01,2013-06-15 04:06:00,
2013-06-15 00:11:00,58.6,49.6,30.02,NNE,22,0.0,0.0,72,0.00,,SKC,0.00,VWS V14.01,2013-06-15 04:11:00,
2013-06-15 00:16:00,58.6,49.6,30.02,NNE,22,0.0,0.0,72,0.00,,SKC,0.00,VWS V14.01,2013-06-15 04:16:00,
2013-06-15 00:22:00,58.6,50.0,30.02,NNE,22,0.0,0.0,73,0.00,,SKC,0.00,VWS V14.01,2013-06-15 04:22:00,
2013-06-15 00:27:00,58.6,50.0,30.02,NNE,22,0.0,0.0,73,0.00,,SKC,0.00,VWS V14.01,2013-06-15 04:27:00,
2013-06-15 00:32:00,58.6,50.3,30.02,NNE,22,0.0,0.0,74,0.00,,SKC,0.00,VWS V14.01,2013-06-15 04:32:00,
2013-06-15 00:37:00,58.8,50.5,30.02,NNE,22,0.0,0.0,74,0.00,,SKC,0.00,VWS V14.01,2013-06-15 04:37:00,
2013-06-15 00:42:00,58.8,50.9,30.02,WNW,292,0.0,0.0,75,0.00,,SKC,0.00,VWS V14.01,2013-06-15 04:42:00,
2013-06-15 00:47:00,59.0,51.1,30.01,WNW,292,0.0,0.0,75,0.00,,SKC,0.00,VWS V14.01,2013-06-15 04:47:00,
2013-06-15 00:52:00,59.0,51.5,30.01,WNW,292,0.0,0.0,76,0.00,,SKC,0.00,VWS V14.01,2013-06-15 04:52:00,
2013-06-15 00:57:00,59.0,51.1,30.01,WNW,292,0.0,0.0,75,0.00,,SKC,0.00,VWS V14.01,2013-06-15 04:57:00,
2013-06-15 01:02:00,59.0,51.1,30.00,WNW,292,0.0,0.0,75,0.00,,SKC,0.00,VWS V14.01,2013-06-15 05:02:00,
2013-06-15 01:07:00,58.8,51.3,30.00,WNW,292,0.0,0.0,76,0.00,,SKC,0.00,VWS V14.01,2013-06-15 05:07:00,
2013-06-15 01:12:00,58.8,51.6,30.00,WNW,292,0.0,0.0,77,0.00,,SKC,0.00,VWS V14.01,2013-06-15 05:12:00,
2013-06-15 01:17:00,58.6,51.4,30.00,WNW,292,0.0,0.0,77,0.00,,SKC,0.00,VWS V14.01,2013-06-15 05:17:00,
2013-06-15 01:22:00,58.8,51.6,30.00,South,180,0.0,0.0,77,0.00,,SKC,0.00,VWS V14.01,2013-06-15 05:22:00,
2013-06-15 01:27:00,58.8,51.6,30.00,South,180,0.0,0.0,77,0.00,,SKC,0.00,VWS V14.01,2013-06-15 05:27:00,
2013-06-15 01:32:00,58.6,51.4,30.00,South,180,0.0,0.0,77,0.00,,SKC,0.00,VWS V14.01,2013-06-15 05:32:00,
2013-06-15 01:37:00,58.6,51.4,30.00,South,180,0.0,0.0,77,0.00,,SKC,0.00,VWS V14.01,2013-06-15 05:37:00,
2013-06-15 01:42:00,58.6,51.8,30.00,South,180,0.0,0.0,78,0.00,,SKC,0.00,VWS V14.01,2013-06-15 05:42:00,
2013-06-15 01:47:00,58.6,51.8,30.00,South,180,0.0,0.0,78,0.00,,SKC,0.00,VWS V14.01,2013-06-15 05:47:00,
2013-06-15 01:52:00,58.6,52.1,30.00,South,180,0.0,0.0,79,0.00,,SKC,0.00,VWS V14.01,2013-06-15 05:52:00,
2013-06-15 01:57:00,58.6,52.1,30.00,South,180,0.0,0.0,79,0.00,,SKC,0.00,VWS V14.01,2013-06-15 05:57:00,
2013-06-15 02:02:00,58.6,52.5,30.00,South,180,0.0,0.0,80,0.00,,SKC,0.00,VWS V14.01,2013-06-15 06:02:00,
2013-06-15 02:07:00,58.6,52.5,30.01,South,180,0.0,0.0,80,0.00,,SKC,0.00,VWS V14.01,2013-06-15 06:07:00,
2013-06-15 02:12:00,58.4,52.3,30.01,South,180,0.0,0.0,80,0.00,,SKC,0.00,VWS V14.01,2013-06-15 06:12:00,
2013-06-15 02:17:00,58.4,52.3,30.01,South,180,0.0,0.0,80,0.00,,SKC,0.00,VWS V14.01,2013-06-15 06:17:00,
2013-06-15 02:22:00,58.2,52.1,30.01,South,180,0.0,0.0,80,0.00,,SKC,0.00,VWS V14.01,2013-06-15 06:22:00,
2013-06-15 02:27:00,58.1,52.0,30.00,South,180,0.0,0.0,80,0.00,,SKC,0.00,VWS V14.01,2013-06-15 06:27:00,
2013-06-15 02:32:00,57.9,52.1,30.00,South,180,0.0,0.0,81,0.00,,SKC,0.00,VWS V14.01,2013-06-15 06:32:00,
2013-06-15 02:37:00,57.9,52.5,30.01,South,180,0.0,0.0,82,0.00,,SKC,0.00,VWS V14.01,2013-06-15 06:37:00,
2013-06-15 02:42:00,57.7,52.2,30.01,South,180,0.0,0.0,82,0.00,,SKC,0.00,VWS V14.01,2013-06-15 06:42:00,
2013-06-15 02:47:00,57.7,52.2,30.01,South,180,0.0,0.0,82,0.00,,SKC,0.00,VWS V14.01,2013-06-15 06:47:00,
2013-06-15 02:52:00,57.5,52.1,30.01,South,180,0.0,0.0,82,0.00,,SKC,0.00,VWS V14.01,2013-06-15 06:52:00,
2013-06-15 02:57:00,57.5,52.4,30.01,South,180,0.0,0.0,83,0.00,,SKC,0.00,VWS V14.01,2013-06-15 06:57:00,
2013-06-15 03:02:00,57.3,52.2,30.01,South,180,0.0,0.0,83,0.00,,SKC,0.00,VWS V14.01,2013-06-15 07:02:00,
2013-06-15 03:07:00,57.5,52.7,30.02,South,180,0.0,0.0,84,0.00,,SKC,0.00,VWS V14.01,2013-06-15 07:07:00,
2013-06-15 03:12:00,57.3,52.5,30.01,South,180,0.0,0.0,84,0.00,,SKC,0.00,VWS V14.01,2013-06-15 07:12:00,
2013-06-15 03:17:00,57.5,52.7,30.01,South,180,0.0,0.0,84,0.00,,SKC,0.00,VWS V14.01,2013-06-15 07:17:00,
2013-06-15 03:22:00,57.3,52.5,30.01,South,180,0.0,0.0,84,0.00,,SKC,0.00,VWS V14.01,2013-06-15 07:22:00,
2013-06-15 03:27:00,57.3,52.5,30.01,South,180,0.0,0.0,84,0.00,,SKC,0.00,VWS V14.01,2013-06-15 07:27:00,
2013-06-15 03:32:00,57.3,52.8,30.01,South,180,0.0,0.0,85,0.00,,SKC,0.00,VWS V14.01,2013-06-15 07:32:00,
2013-06-15 03:37:00,57.3,52.8,30.02,South,180,0.0,0.0,85,0.00,,SKC,0.00,VWS V14.01,2013-06-15 07:37:00,
2013-06-15 03:42:00,57.3,52.8,30.01,South,180,0.0,0.0,85,0.00,,SKC,0.00,VWS V14.01,2013-06-15 07:42:00,
2013-06-15 03:47:00,57.3,52.5,30.02,South,180,0.0,0.0,84,0.00,,SKC,0.00,VWS V14.01,2013-06-15 07:47:00,
2013-06-15 03:52:00,57.3,52.5,30.01,South,180,0.0,0.0,84,0.00,,SKC,0.00,VWS V14.01,2013-06-15 07:52:00,
2013-06-15 03:57:00,57.2,52.4,30.02,South,180,0.0,0.0,84,0.00,,SKC,0.00,VWS V14.01,2013-06-15 07:57:00,
2013-06-15 04:02:00,57.0,52.2,30.02,South,180,0.0,0.0,84,0.00,,SKC,0.00,VWS V14.01,2013-06-15 08:02:00,
2013-06-15 04:07:00,57.0,52.2,30.02,South,180,0.0,0.0,84,0.00,,SKC,0.00,VWS V14.01,2013-06-15 08:07:00,
2013-06-15 04:12:00,57.0,52.5,30.02,South,180,0.0,0.0,85,0.00,,SKC,0.00,VWS V14.01,2013-06-15 08:12:00,
2013-06-15 04:17:00,56.8,52.3,30.02,South,180,0.0,0.0,85,0.00,,SKC,0.00,VWS V14.01,2013-06-15 08:17:00,
2013-06-15 04:22:00,56.8,52.3,30.02,South,180,0.0,0.0,85,0.00,,SKC,0.00,VWS V14.01,2013-06-15 08:22:00,
2013-06-15 04:27:00,56.8,52.3,30.02,South,180,0.0,0.0,85,0.00,,SKC,0.00,VWS V14.01,2013-06-15 08:27:00,
2013-06-15 04:33:00,56.6,52.2,30.02,South,180,0.0,0.0,85,0.00,,SKC,0.00,VWS V14.01,2013-06-15 08:33:00,
2013-06-15 04:38:00,56.4,52.0,30.02,South,180,0.0,0.0,85,0.00,,SKC,0.00,VWS V14.01,2013-06-15 08:38:00,
2013-06-15 04:43:00,56.6,52.2,30.02,South,180,0.0,0.0,85,0.00,,SKC,0.00,VWS V14.01,2013-06-15 08:43:00,
2013-06-15 04:48:00,56.4,52.0,30.02,South,180,0.0,0.0,85,0.00,,SKC,0.00,VWS V14.01,2013-06-15 08:48:00,
2013-06-15 04:53:00,56.6,52.2,30.02,South,180,0.0,0.0,85,0.00,,SKC,0.00,VWS V14.01,2013-06-15 08:53:00,
2013-06-15 04:58:00,56.6,52.2,30.02,South,180,0.0,0.0,85,0.00,,SKC,0.00,VWS V14.01,2013-06-15 08:58:00,
2013-06-15 05:03:00,56.3,51.9,30.01,South,180,0.0,0.0,85,0.00,,SKC,0.00,VWS V14.01,2013-06-15 09:03:00,
2013-06-15 05:08:00,56.3,51.9,30.01,South,180,0.0,0.0,85,0.00,,SKC,0.00,VWS V14.01,2013-06-15 09:08:00,
2013-06-15 05:13:00,56.3,52.2,30.01,South,180,0.0,0.0,86,0.00,,SKC,0.00,VWS V14.01,2013-06-15 09:13:00,
2013-06-15 05:18:00,56.1,52.3,30.01,South,180,0.0,0.0,87,0.00,,SKC,0.00,VWS V14.01,2013-06-15 09:18:00,
2013-06-15 05:23:00,56.1,52.3,30.01,South,180,0.0,0.0,87,0.00,,SKC,0.00,VWS V14.01,2013-06-15 09:23:00,
2013-06-15 05:28:00,55.7,51.6,30.01,South,180,0.0,0.0,86,0.00,,SKC,0.00,VWS V14.01,2013-06-15 09:28:00,
2013-06-15 05:33:00,55.9,52.1,30.01,South,180,0.0,0.0,87,0.00,,SKC,0.00,VWS V14.01,2013-06-15 09:33:00,
2013-06-15 05:38:00,55.7,51.9,30.01,South,180,0.0,0.0,87,0.00,,SKC,0.00,VWS V14.01,2013-06-15 09:38:00,
2013-06-15 05:43:00,55.7,51.9,30.01,South,180,0.0,0.0,87,0.00,,SKC,0.00,VWS V14.01,2013-06-15 09:43:00,
2013-06-15 05:48:00,55.5,51.7,30.01,South,180,0.0,0.0,87,0.00,,SKC,0.00,VWS V14.01,2013-06-15 09:48:00,
2013-06-15 05:53:00,55.5,51.7,30.01,South,180,0.0,0.0,87,0.00,,SKC,0.00,VWS V14.01,2013-06-15 09:53:00,
2013-06-15 05:58:00,55.4,51.6,30.01,South,180,0.0,0.0,87,0.00,,SKC,0.00,VWS V14.01,2013-06-15 09:58:00,
2013-06-15 06:03:00,55.2,51.4,30.01,South,180,0.0,0.0,87,0.00,,SKC,0.00,VWS V14.01,2013-06-15 10:03:00,
2013-06-15 06:08:00,55.2,51.4,30.02,South,180,0.0,0.0,87,0.00,,SKC,0.00,VWS V14.01,2013-06-15 10:08:00,
2013-06-15 06:13:00,55.2,51.7,30.02,South,180,0.0,0.0,88,0.00,,SKC,0.00,VWS V14.01,2013-06-15 10:13:00,
2013-06-15 06:18:00,55.2,51.7,30.02,South,180,0.0,0.0,88,0.00,,SKC,0.00,VWS V14.01,2013-06-15 10:18:00,
2013-06-15 06:23:00,55.4,52.2,30.02,South,180,0.0,0.0,89,0.00,,SKC,0.00,VWS V14.01,2013-06-15 10:23:00,
2013-06-15 06:28:00,55.5,52.3,30.02,South,180,0.0,0.0,89,0.00,,SKC,0.00,VWS V14.01,2013-06-15 10:28:00,
2013-06-15 06:33:00,55.7,52.5,30.03,South,180,0.0,0.0,89,0.00,,SKC,0.00,VWS V14.01,2013-06-15 10:33:00,
2013-06-15 06:38:00,55.9,53.0,30.03,South,180,0.0,0.0,90,0.00,,SKC,0.00,VWS V14.01,2013-06-15 10:38:00,
2013-06-15 06:43:00,56.1,53.2,30.03,South,180,0.0,0.0,90,0.00,,SKC,0.00,VWS V14.01,2013-06-15 10:43:00,
2013-06-15 06:48:00,56.3,53.1,30.03,South,180,0.0,0.0,89,0.00,,SKC,0.00,VWS V14.01,2013-06-15 10:48:00,
2013-06-15 06:53:00,56.6,53.7,30.04,South,180,0.0,0.0,90,0.00,,SKC,0.00,VWS V14.01,2013-06-15 10:53:00,
2013-06-15 06:58:00,56.6,53.7,30.04,South,180,0.0,0.0,90,0.00,,SKC,0.00,VWS V14.01,2013-06-15 10:58:00,
2013-06-15 07:03:00,57.0,54.1,30.04,South,180,0.0,0.0,90,0.00,,SKC,0.00,VWS V14.01,2013-06-15 11:03:00,
2013-06-15 07:08:00,57.0,54.1,30.04,South,180,0.0,0.0,90,0.00,,SKC,0.00,VWS V14.01,2013-06-15 11:08:00,
2013-06-15 07:13:00,57.3,54.4,30.04,South,180,0.0,0.0,90,0.00,,SKC,0.00,VWS V14.01,2013-06-15 11:13:00,
2013-06-15 07:18:00,57.5,54.9,30.04,South,180,0.0,0.0,91,0.00,,SKC,0.00,VWS V14.01,2013-06-15 11:18:00,
2013-06-15 07:23:00,57.7,55.1,30.04,South,180,0.0,0.0,91,0.00,,SKC,0.00,VWS V14.01,2013-06-15 11:23:00,
2013-06-15 07:28:00,58.1,55.5,30.04,South,180,0.0,0.0,91,0.00,,SKC,0.00,VWS V14.01,2013-06-15 11:28:00,
2013-06-15 07:33:00,58.1,55.2,30.05,South,180,0.0,0.0,90,0.00,,SKC,0.00,VWS V14.01,2013-06-15 11:33:00,
2013-06-15 07:38:00,58.4,55.5,30.05,South,180,0.0,0.0,90,0.00,,SKC,0.00,VWS V14.01,2013-06-15 11:38:00,
2013-06-15 07:43:00,58.6,55.7,30.05,South,180,0.0,0.0,90,0.00,,SKC,0.00,VWS V14.01,2013-06-15 11:43:00,
2013-06-15 07:48:00,59.3,56.1,30.05,South,180,0.0,0.0,89,0.00,,SKC,0.00,VWS V14.01,2013-06-15 11:48:00,
2013-06-15 07:54:00,59.5,56.3,30.05,South,180,0.0,0.0,89,0.00,,SKC,0.00,VWS V14.01,2013-06-15 11:54:00,
2013-06-15 07:59:00,59.9,56.7,30.05,South,180,0.0,0.0,89,0.00,,SKC,0.00,VWS V14.01,2013-06-15 11:59:00,
2013-06-15 08:04:00,60.2,56.3,30.05,South,180,0.0,0.0,87,0.00,,SKC,0.00,VWS V14.01,2013-06-15 12:04:00,
2013-06-15 08:09:00,60.6,56.4,30.05,South,180,0.0,0.0,86,0.00,,SKC,0.00,VWS V14.01,2013-06-15 12:09:00,
2013-06-15 08:14:00,61.1,56.9,30.04,South,180,0.0,0.0,86,0.00,,SKC,0.00,VWS V14.01,2013-06-15 12:14:00,
2013-06-15 08:19:00,61.3,56.8,30.04,South,180,0.0,0.0,85,0.00,,SKC,0.00,VWS V14.01,2013-06-15 12:19:00,
2013-06-15 08:24:00,61.7,56.5,30.05,South,180,0.0,0.0,83,0.00,,SKC,0.00,VWS V14.01,2013-06-15 12:24:00,
2013-06-15 08:29:00,62.0,56.8,30.05,South,180,0.0,0.0,83,0.00,,SKC,0.00,VWS V14.01,2013-06-15 12:29:00,
2013-06-15 08:34:00,62.4,57.2,30.05,South,180,0.0,0.0,83,0.00,,SKC,0.00,VWS V14.01,2013-06-15 12:34:00,
2013-06-15 08:39:00,62.7,57.1,30.05,SW,225,0.0,0.0,82,0.00,,SKC,0.00,VWS V14.01,2013-06-15 12:39:00,
2013-06-15 08:44:00,62.9,57.3,30.04,SW,225,0.0,0.0,82,0.00,,SKC,0.00,VWS V14.01,2013-06-15 12:44:00,
2013-06-15 08:49:00,63.3,57.7,30.04,SW,225,0.0,0.0,82,0.00,,SKC,0.00,VWS V14.01,2013-06-15 12:49:00,
2013-06-15 08:54:00,63.8,57.9,30.04,SW,225,0.0,0.0,81,0.00,,SKC,0.00,VWS V14.01,2013-06-15 12:54:00,
2013-06-15 08:59:00,64.5,58.2,30.04,SW,225,0.0,0.0,80,0.00,,SKC,0.00,VWS V14.01,2013-06-15 12:59:00,
2013-06-15 09:04:00,65.1,58.8,30.04,SW,225,0.0,0.0,80,0.00,,SKC,0.00,VWS V14.01,2013-06-15 13:04:00,
2013-06-15 09:09:00,65.8,58.8,30.04,SW,225,0.0,0.0,78,0.00,,SKC,0.00,VWS V14.01,2013-06-15 13:09:00,
2013-06-15 09:14:00,66.9,59.5,30.04,SW,225,0.0,0.0,77,0.00,,SKC,0.00,VWS V14.01,2013-06-15 13:14:00,
2013-06-15 09:19:00,67.4,59.2,30.04,WSW,248,0.0,0.0,75,0.00,,SKC,0.00,VWS V14.01,2013-06-15 13:19:00,
2013-06-15 09:24:00,68.3,59.3,30.03,South,180,0.0,0.0,73,0.00,,SKC,0.00,VWS V14.01,2013-06-15 13:24:00,
2013-06-15 09:29:00,69.0,59.2,30.03,SW,225,0.0,0.0,71,0.00,,SKC,0.00,VWS V14.01,2013-06-15 13:29:00,
2013-06-15 09:34:00,69.6,59.4,30.04,WSW,248,0.0,0.0,70,0.00,,SKC,0.00,VWS V14.01,2013-06-15 13:34:00,
2013-06-15 09:39:00,70.1,59.1,30.03,West,270,0.0,0.0,68,0.00,,SKC,0.00,VWS V14.01,2013-06-15 13:39:00,
2013-06-15 09:44:00,70.7,59.2,30.03,West,270,0.0,0.0,67,0.00,,SKC,0.00,VWS V14.01,2013-06-15 13:44:00,
2013-06-15 09:49:00,71.0,58.7,30.03,WNW,292,0.0,0.0,65,0.00,,SKC,0.00,VWS V14.01,2013-06-15 13:49:00,
2013-06-15 09:54:00,71.2,58.0,30.03,West,270,0.0,0.0,63,0.00,,SKC,0.00,VWS V14.01,2013-06-15 13:54:00,
2013-06-15 09:59:00,71.6,58.3,30.03,WSW,248,0.0,0.0,63,0.00,,SKC,0.00,VWS V14.01,2013-06-15 13:59:00,
2013-06-15 10:04:00,71.9,58.6,30.03,WSW,248,0.0,0.0,63,0.00,,SKC,0.00,VWS V14.01,2013-06-15 14:04:00,
2013-06-15 10:09:00,73.0,59.2,30.03,WSW,248,0.0,0.0,62,0.00,,SKC,0.00,VWS V14.01,2013-06-15 14:09:00,
2013-06-15 10:14:00,73.7,59.0,30.02,NNW,338,0.0,0.0,60,0.00,,SKC,0.00,VWS V14.01,2013-06-15 14:14:00,
2013-06-15 10:19:00,74.4,58.2,30.02,West,270,0.0,0.0,57,0.00,,SKC,0.00,VWS V14.01,2013-06-15 14:19:00,
2013-06-15 10:24:00,75.5,58.7,30.02,WSW,248,0.0,0.0,56,0.00,,SKC,0.00,VWS V14.01,2013-06-15 14:24:00,
2013-06-15 10:29:00,76.2,58.4,30.02,WNW,292,0.0,0.0,54,0.00,,SKC,0.00,VWS V14.01,2013-06-15 14:29:00,
2013-06-15 10:34:00,77.0,59.1,30.02,SE,135,0.0,0.0,54,0.00,,SKC,0.00,VWS V14.01,2013-06-15 14:34:00,
2013-06-15 10:39:00,77.7,59.2,30.02,WSW,248,0.0,0.0,53,0.00,,SKC,0.00,VWS V14.01,2013-06-15 14:39:00,
2013-06-15 10:44:00,78.9,59.2,30.01,WNW,292,0.0,0.0,51,0.00,,SKC,0.00,VWS V14.01,2013-06-15 14:44:00,
2013-06-15 10:49:00,79.5,59.2,30.01,WSW,248,0.0,0.0,50,0.00,,SKC,0.00,VWS V14.01,2013-06-15 14:49:00,
2013-06-15 10:54:00,79.8,58.4,30.01,NW,315,0.0,0.0,48,0.00,,SKC,0.00,VWS V14.01,2013-06-15 14:54:00,
2013-06-15 10:59:00,80.2,58.2,30.01,WNW,292,0.0,0.0,47,0.00,,SKC,0.00,VWS V14.01,2013-06-15 14:59:00,
2013-06-15 11:04:00,80.7,58.0,30.01,SW,225,0.0,0.0,46,0.00,,SKC,0.00,VWS V14.01,2013-06-15 15:04:00,
2013-06-15 11:09:00,80.7,58.0,30.00,NW,315,0.0,0.0,46,0.00,,SKC,0.00,VWS V14.01,2013-06-15 15:09:00,
2013-06-15 11:14:00,80.9,57.6,30.00,WSW,248,0.0,0.0,45,0.00,,SKC,0.00,VWS V14.01,2013-06-15 15:14:00,
2013-06-15 11:19:00,81.3,57.3,30.00,NNW,338,0.0,0.0,44,0.00,,SKC,0.00,VWS V14.01,2013-06-15 15:19:00,
2013-06-15 11:24:00,81.3,56.7,30.00,NNW,338,0.0,0.0,43,0.00,,SKC,0.00,VWS V14.01,2013-06-15 15:24:00,
2013-06-15 11:30:00,81.1,56.5,29.99,NNW,338,0.0,0.0,43,0.00,,SKC,0.00,VWS V14.01,2013-06-15 15:30:00,
2013-06-15 11:35:00,80.9,55.7,29.99,North,0,0.0,0.0,42,0.00,,SKC,0.00,VWS V14.01,2013-06-15 15:35:00,
2013-06-15 11:40:00,80.9,55.7,29.99,West,270,0.0,0.0,42,0.00,,SKC,0.00,VWS V14.01,2013-06-15 15:40:00,
2013-06-15 11:45:00,81.3,57.3,29.99,WSW,248,0.0,0.0,44,0.00,,SKC,0.00,VWS V14.01,2013-06-15 15:45:00,
2013-06-15 11:50:00,81.6,57.0,29.99,ENE,68,0.0,0.0,43,0.00,,SKC,0.00,VWS V14.01,2013-06-15 15:50:00,
2013-06-15 11:55:00,82.0,56.7,29.99,NW,315,0.0,0.0,42,0.00,,SKC,0.00,VWS V14.01,2013-06-15 15:55:00,
2013-06-15 12:00:00,82.0,55.3,29.99,NNW,338,0.0,0.0,40,0.00,,SKC,0.00,VWS V14.01,2013-06-15 16:00:00,
2013-06-15 12:05:00,82.0,56.0,29.99,WSW,248,0.0,0.0,41,0.00,,SKC,0.00,VWS V14.01,2013-06-15 16:05:00,
2013-06-15 12:10:00,81.8,55.8,29.99,WSW,248,0.0,0.0,41,0.00,,SKC,0.00,VWS V14.01,2013-06-15 16:10:00,
2013-06-15 12:15:00,82.0,56.0,29.98,WNW,292,0.0,0.0,41,0.00,,SKC,0.00,VWS V14.01,2013-06-15 16:15:00,
2013-06-15 12:20:00,81.6,55.0,29.98,NNW,338,0.0,0.0,40,0.00,,SKC,0.00,VWS V14.01,2013-06-15 16:20:00,
2013-06-15 12:25:00,81.5,56.9,29.98,WNW,292,0.0,0.0,43,0.00,,SKC,0.00,VWS V14.01,2013-06-15 16:25:00,
2013-06-15 12:30:00,81.5,56.9,29.98,West,270,0.0,0.0,43,0.00,,SKC,0.00,VWS V14.01,2013-06-15 16:30:00,
2013-06-15 12:35:00,82.0,56.7,29.98,WSW,248,0.0,0.0,42,0.00,,SKC,0.00,VWS V14.01,2013-06-15 16:35:00,
2013-06-15 12:40:00,82.5,57.8,29.98,West,270,0.0,0.0,43,0.00,,SKC,0.00,VWS V14.01,2013-06-15 16:40:00,
2013-06-15 12:45:00,82.9,58.1,29.98,SSW,202,0.0,0.0,43,0.00,,SKC,0.00,VWS V14.01,2013-06-15 16:45:00,
2013-06-15 12:50:00,82.7,56.6,29.97,South,180,0.0,0.0,41,0.00,,SKC,0.00,VWS V14.01,2013-06-15 16:50:00,
2013-06-15 12:55:00,82.7,56.0,29.97,NW,315,0.0,0.0,40,0.00,,SKC,0.00,VWS V14.01,2013-06-15 16:55:00,
2013-06-15 13:00:00,82.4,56.4,29.98,WSW,248,0.0,0.0,41,0.00,,SKC,0.00,VWS V14.01,2013-06-15 17:00:00,
2013-06-15 13:05:00,81.8,55.8,29.97,SW,225,0.0,0.0,41,0.00,,SKC,0.00,VWS V14.01,2013-06-15 17:05:00,
2013-06-15 13:10:00,81.3,56.0,29.98,West,270,0.0,0.0,42,0.00,,SKC,0.00,VWS V14.01,2013-06-15 17:10:00,
2013-06-15 13:15:00,81.1,56.5,29.98,SSW,202,0.0,0.0,43,0.00,,SKC,0.00,VWS V14.01,2013-06-15 17:15:00,
2013-06-15 13:20:00,80.7,56.2,29.98,NNW,338,0.0,0.0,43,0.00,,SKC,0.00,VWS V14.01,2013-06-15 17:20:00,
2013-06-15 13:25:00,80.6,56.1,29.97,West,270,0.0,0.0,43,0.00,,SKC,0.00,VWS V14.01,2013-06-15 17:25:00,
2013-06-15 13:30:00,80.6,56.1,29.98,SW,225,0.0,0.0,43,0.00,,SKC,0.00,VWS V14.01,2013-06-15 17:30:00,
2013-06-15 13:35:00,80.2,55.7,29.97,West,270,0.0,0.0,43,0.00,,SKC,0.00,VWS V14.01,2013-06-15 17:35:00,
2013-06-15 13:40:00,80.2,55.0,29.97,West,270,0.0,0.0,42,0.00,,SKC,0.00,VWS V14.01,2013-06-15 17:40:00,
2013-06-15 13:45:00,80.0,54.9,29.97,WSW,248,0.0,0.0,42,0.00,,SKC,0.00,VWS V14.01,2013-06-15 17:45:00,
2013-06-15 13:50:00,80.0,56.2,29.97,SSW,202,0.0,0.0,44,0.00,,SKC,0.00,VWS V14.01,2013-06-15 17:50:00,
2013-06-15 13:55:00,79.8,56.0,29.97,West,270,0.0,0.0,44,0.00,,SKC,0.00,VWS V14.01,2013-06-15 17:55:00,
2013-06-15 14:00:00,79.5,55.7,29.97,WSW,248,0.0,0.0,44,0.00,,SKC,0.00,VWS V14.01,2013-06-15 18:00:00,
2013-06-15 14:05:00,79.7,56.5,29.97,WSW,248,0.0,0.0,45,0.00,,SKC,0.00,VWS V14.01,2013-06-15 18:05:00,
2013-06-15 14:10:00,79.8,56.0,29.97,West,270,0.0,0.0,44,0.00,,SKC,0.00,VWS V14.01,2013-06-15 18:10:00,
2013-06-15 14:15:00,80.4,55.9,29.97,West,270,0.0,0.0,43,0.00,,SKC,0.00,VWS V14.01,2013-06-15 18:15:00,
2013-06-15 14:21:00,80.9,56.3,29.97,West,270,0.0,0.0,43,0.00,,SKC,0.00,VWS V14.01,2013-06-15 18:21:00,
2013-06-15 14:26:00,81.8,57.1,29.97,NNW,338,0.0,0.0,43,0.00,,SKC,0.00,VWS V14.01,2013-06-15 18:26:00,
2013-06-15 14:31:00,82.9,56.8,29.97,NNW,338,0.0,0.0,41,0.00,,SKC,0.00,VWS V14.01,2013-06-15 18:31:00,
2013-06-15 14:36:00,83.3,56.5,29.97,West,270,0.0,0.0,40,0.00,,SKC,0.00,VWS V14.01,2013-06-15 18:36:00,
2013-06-15 14:41:00,83.6,57.4,29.97,West,270,0.0,0.0,41,0.00,,SKC,0.00,VWS V14.01,2013-06-15 18:41:00,
2013-06-15 14:46:00,83.8,56.9,29.97,SSE,158,0.0,0.0,40,0.00,,SKC,0.00,VWS V14.01,2013-06-15 18:46:00,
2013-06-15 14:51:00,84.0,57.1,29.96,NNW,338,0.0,0.0,40,0.00,,SKC,0.00,VWS V14.01,2013-06-15 18:51:00,
2013-06-15 14:56:00,84.2,56.6,29.97,SW,225,0.0,0.0,39,0.00,,SKC,0.00,VWS V14.01,2013-06-15 18:56:00,
2013-06-15 15:01:00,84.0,55.7,29.97,WNW,292,0.0,0.0,38,0.00,,SKC,0.00,VWS V14.01,2013-06-15 19:01:00,
2013-06-15 15:06:00,84.2,55.9,29.97,WNW,292,0.0,0.0,38,0.00,,SKC,0.00,VWS V14.01,2013-06-15 19:06:00,
2013-06-15 15:11:00,84.5,56.1,29.97,WNW,292,0.0,0.0,38,0.00,,SKC,0.00,VWS V14.01,2013-06-15 19:11:00,
2013-06-15 15:16:00,84.9,55.8,29.97,WSW,248,0.0,0.0,37,0.00,,SKC,0.00,VWS V14.01,2013-06-15 19:16:00,
2013-06-15 15:21:00,84.9,55.0,29.97,WSW,248,4.4,4.4,36,0.00,,SKC,0.00,VWS V14.01,2013-06-15 19:21:00,
2013-06-15 15:26:00,85.1,56.7,29.97,West,270,0.0,4.4,38,0.00,,SKC,0.00,VWS V14.01,2013-06-15 19:26:00,
2013-06-15 15:31:00,84.9,55.8,29.97,SSW,202,0.0,0.0,37,0.00,,SKC,0.00,VWS V14.01,2013-06-15 19:31:00,
2013-06-15 15:36:00,84.9,55.8,29.97,WSW,248,0.0,0.0,37,0.00,,SKC,0.00,VWS V14.01,2013-06-15 19:36:00,
2013-06-15 15:41:00,84.9,55.8,29.97,South,180,0.0,0.0,37,0.00,,SKC,0.00,VWS V14.01,2013-06-15 19:41:00,
2013-06-15 15:46:00,84.3,56.0,29.97,West,270,0.0,0.0,38,0.00,,SKC,0.00,VWS V14.01,2013-06-15 19:46:00,
2013-06-15 15:51:00,83.6,56.0,29.97,SSW,202,0.0,0.0,39,0.00,,SKC,0.00,VWS V14.01,2013-06-15 19:51:00,
2013-06-15 15:56:00,83.1,55.6,29.97,NW,315,0.0,0.0,39,0.00,,SKC,0.00,VWS V14.01,2013-06-15 19:56:00,
2013-06-15 16:01:00,82.7,55.2,29.97,WNW,292,0.0,0.0,39,0.00,,SKC,0.00,VWS V14.01,2013-06-15 20:01:00,
2013-06-15 16:06:00,81.6,55.0,29.97,West,270,0.0,0.0,40,0.00,,SKC,0.00,VWS V14.01,2013-06-15 20:06:00,
2013-06-15 16:11:00,80.7,54.8,29.97,WSW,248,0.0,0.0,41,0.00,,SKC,0.00,VWS V14.01,2013-06-15 20:11:00,
2013-06-15 16:16:00,80.0,54.9,29.96,NW,315,0.0,0.0,42,0.00,,SKC,0.00,VWS V14.01,2013-06-15 20:16:00,
2013-06-15 16:21:00,79.1,55.3,29.96,West,270,0.0,0.0,44,0.00,,SKC,0.00,VWS V14.01,2013-06-15 20:21:00,
2013-06-15 16:26:00,79.3,56.1,29.96,WSW,248,0.0,0.0,45,0.00,,SKC,0.00,VWS V14.01,2013-06-15 20:26:00,
2013-06-15 16:31:00,78.9,55.8,29.96,WSW,248,0.0,0.0,45,0.00,,SKC,0.00,VWS V14.01,2013-06-15 20:31:00,
2013-06-15 16:37:00,78.9,56.4,29.96,WNW,292,0.0,0.0,46,0.00,,SKC,0.00,VWS V14.01,2013-06-15 20:37:00,
2013-06-15 16:42:00,78.9,56.4,29.96,West,270,0.0,0.0,46,0.00,,SKC,0.00,VWS V14.01,2013-06-15 20:42:00,
2013-06-15 16:47:00,78.6,56.1,29.96,WSW,248,0.0,0.0,46,0.00,,SKC,0.00,VWS V14.01,2013-06-15 20:47:00,
2013-06-15 16:52:00,78.4,55.9,29.96,WSW,248,0.0,0.0,46,0.00,,SKC,0.00,VWS V14.01,2013-06-15 20:52:00,
2013-06-15 16:57:00,77.9,55.5,29.96,West,270,0.0,0.0,46,0.00,,SKC,0.00,VWS V14.01,2013-06-15 20:57:00,
2013-06-15 17:02:00,77.1,56.5,29.96,WSW,248,0.0,0.0,49,0.00,,SKC,0.00,VWS V14.01,2013-06-15 21:02:00,
2013-06-15 17:07:00,76.4,56.4,29.96,West,270,0.0,0.0,50,0.00,,SKC,0.00,VWS V14.01,2013-06-15 21:07:00,
2013-06-15 17:12:00,75.5,56.7,29.96,West,270,0.0,0.0,52,0.00,,SKC,0.00,VWS V14.01,2013-06-15 21:12:00,
2013-06-15 17:17:00,75.3,57.0,29.96,West,270,0.0,0.0,53,0.00,,SKC,0.00,VWS V14.01,2013-06-15 21:17:00,
2013-06-15 17:22:00,74.3,57.6,29.96,West,270,0.0,0.0,56,0.00,,SKC,0.00,VWS V14.01,2013-06-15 21:22:00,
2013-06-15 17:27:00,73.5,57.8,29.96,West,270,0.0,0.0,58,0.00,,SKC,0.00,VWS V14.01,2013-06-15 21:27:00,
2013-06-15 17:32:00,72.3,58.6,29.96,SW,225,0.0,0.0,62,0.02,,SKC,0.02,VWS V14.01,2013-06-15 21:32:00,
2013-06-15 17:37:00,71.7,59.3,29.96,WNW,292,0.0,0.0,65,0.02,,SKC,0.02,VWS V14.01,2013-06-15 21:37:00,
2013-06-15 17:42:00,71.0,59.1,29.96,West,270,0.0,0.0,66,0.02,,SKC,0.02,VWS V14.01,2013-06-15 21:42:00,
2013-06-15 17:47:00,70.1,59.1,29.96,WSW,248,0.0,0.0,68,0.02,,SKC,0.02,VWS V14.01,2013-06-15 21:47:00,
2013-06-15 17:52:00,69.8,59.2,29.96,WSW,248,0.0,0.0,69,0.02,,SKC,0.02,VWS V14.01,2013-06-15 21:52:00,
2013-06-15 17:57:00,69.6,59.0,29.95,West,270,0.0,0.0,69,0.02,,SKC,0.02,VWS V14.01,2013-06-15 21:57:00,
2013-06-15 18:02:00,69.6,59.4,29.95,West,270,0.0,0.0,70,0.02,,SKC,0.02,VWS V14.01,2013-06-15 22:02:00,
2013-06-15 18:07:00,69.6,59.8,29.95,West,270,0.0,0.0,71,0.02,,SKC,0.02,VWS V14.01,2013-06-15 22:07:00,
2013-06-15 18:12:00,69.6,60.2,29.95,West,270,0.0,0.0,72,0.02,,SKC,0.02,VWS V14.01,2013-06-15 22:12:00,
2013-06-15 18:17:00,69.6,60.2,29.95,WNW,292,0.0,0.0,72,0.02,,SKC,0.02,VWS V14.01,2013-06-15 22:17:00,
2013-06-15 18:22:00,69.8,60.4,29.94,WSW,248,0.0,0.0,72,0.02,,SKC,0.02,VWS V14.01,2013-06-15 22:22:00,
2013-06-15 18:27:00,69.9,60.5,29.95,NNW,338,0.0,0.0,72,0.02,,SKC,0.02,VWS V14.01,2013-06-15 22:27:00,
2013-06-15 18:32:00,69.9,60.1,29.94,West,270,0.0,0.0,71,0.00,,SKC,0.02,VWS V14.01,2013-06-15 22:32:00,
2013-06-15 18:37:00,69.9,60.1,29.94,West,270,0.0,0.0,71,0.00,,SKC,0.02,VWS V14.01,2013-06-15 22:37:00,
2013-06-15 18:42:00,69.9,59.7,29.94,West,270,0.0,0.0,70,0.00,,SKC,0.02,VWS V14.01,2013-06-15 22:42:00,
2013-06-15 18:47:00,70.1,59.9,29.94,WNW,292,0.0,0.0,70,0.00,,SKC,0.02,VWS V14.01,2013-06-15 22:47:00,
2013-06-15 18:52:00,70.3,59.2,29.94,West,270,0.0,0.0,68,0.00,,SKC,0.02,VWS V14.01,2013-06-15 22:52:00,
2013-06-15 18:57:00,70.5,59.4,29.94,West,270,0.0,0.0,68,0.00,,SKC,0.02,VWS V14.01,2013-06-15 22:57:00,
2013-06-15 19:02:00,70.7,58.8,29.94,West,270,0.0,0.0,66,0.00,,SKC,0.02,VWS V14.01,2013-06-15 23:02:00,
2013-06-15 19:07:00,70.8,58.9,29.94,WSW,248,0.0,0.0,66,0.00,,SKC,0.02,VWS V14.01,2013-06-15 23:07:00,
2013-06-15 19:12:00,71.2,59.3,29.94,SW,225,0.0,0.0,66,0.00,,SKC,0.02,VWS V14.01,2013-06-15 23:12:00,
2013-06-15 19:17:00,71.6,59.7,29.93,WSW,248,0.0,0.0,66,0.00,,SKC,0.02,VWS V14.01,2013-06-15 23:17:00,
2013-06-15 19:22:00,71.9,59.5,29.93,West,270,0.0,0.0,65,0.00,,SKC,0.02,VWS V14.01,2013-06-15 23:22:00,
2013-06-15 19:27:00,71.9,59.5,29.93,West,270,0.0,0.0,65,0.00,,SKC,0.02,VWS V14.01,2013-06-15 23:27:00,
2013-06-15 19:32:00,71.9,59.5,29.93,West,270,0.0,0.0,65,0.00,,SKC,0.02,VWS V14.01,2013-06-15 23:32:00,
2013-06-15 19:38:00,71.9,59.1,29.92,NW,315,0.0,0.0,64,0.00,,SKC,0.02,VWS V14.01,2013-06-15 23:38:00,
2013-06-15 19:43:00,71.9,59.1,29.92,West,270,0.0,0.0,64,0.00,,SKC,0.02,VWS V14.01,2013-06-15 23:43:00,
2013-06-15 19:48:00,71.7,58.9,29.92,WSW,248,0.0,0.0,64,0.00,,SKC,0.02,VWS V14.01,2013-06-15 23:48:00,
2013-06-15 19:53:00,71.4,59.0,29.92,West,270,0.0,0.0,65,0.00,,SKC,0.02,VWS V14.01,2013-06-15 23:53:00,
2013-06-15 19:58:00,71.4,59.0,29.92,West,270,0.0,0.0,65,0.00,,SKC,0.02,VWS V14.01,2013-06-15 23:58:00,
2013-06-15 20:03:00,71.4,59.0,29.92,WNW,292,0.0,0.0,65,0.00,,SKC,0.02,VWS V14.01,2013-06-16 00:03:00,
2013-06-15 20:08:00,71.2,58.8,29.92,West,270,0.0,0.0,65,0.00,,SKC,0.02,VWS V14.01,2013-06-16 00:08:00,
2013-06-15 20:13:00,71.2,59.3,29.92,WNW,292,0.0,0.0,66,0.00,,SKC,0.02,VWS V14.01,2013-06-16 00:13:00,
2013-06-15 20:18:00,71.2,59.3,29.92,WNW,292,0.0,0.0,66,0.00,,SKC,0.02,VWS V14.01,2013-06-16 00:18:00,
2013-06-15 20:23:00,71.0,59.1,29.92,WNW,292,0.0,0.0,66,0.00,,SKC,0.02,VWS V14.01,2013-06-16 00:23:00,
2013-06-15 20:28:00,70.7,58.4,29.92,NNW,338,0.0,0.0,65,0.00,,SKC,0.02,VWS V14.01,2013-06-16 00:28:00,
2013-06-15 20:33:00,70.5,58.6,29.92,West,270,0.0,0.0,66,0.00,,SKC,0.02,VWS V14.01,2013-06-16 00:33:00,
2013-06-15 20:38:00,70.1,58.7,29.92,West,270,0.0,0.0,67,0.00,,SKC,0.02,VWS V14.01,2013-06-16 00:38:00,
2013-06-15 20:43:00,69.9,58.5,29.92,West,270,0.0,0.0,67,0.00,,SKC,0.02,VWS V14.01,2013-06-16 00:43:00,
2013-06-15 20:48:00,69.9,58.5,29.92,West,270,0.0,0.0,67,0.00,,SKC,0.02,VWS V14.01,2013-06-16 00:48:00,
2013-06-15 20:53:00,69.9,58.9,29.92,North,0,0.0,0.0,68,0.00,,SKC,0.02,VWS V14.01,2013-06-16 00:53:00,
2013-06-15 20:58:00,69.6,58.6,29.92,North,0,0.0,0.0,68,0.00,,SKC,0.02,VWS V14.01,2013-06-16 00:58:00,
2013-06-15 21:03:00,69.4,58.4,29.92,North,0,0.0,0.0,68,0.00,,SKC,0.02,VWS V14.01,2013-06-16 01:03:00,
2013-06-15 21:08:00,69.2,58.2,29.92,West,270,0.0,0.0,68,0.00,,SKC,0.02,VWS V14.01,2013-06-16 01:08:00,
2013-06-15 21:13:00,69.0,58.0,29.91,West,270,0.0,0.0,68,0.00,,SKC,0.02,VWS V14.01,2013-06-16 01:13:00,
2013-06-15 21:18:00,68.7,57.7,29.91,West,270,0.0,0.0,68,0.00,,SKC,0.02,VWS V14.01,2013-06-16 01:18:00,
2013-06-15 21:23:00,68.3,58.2,29.92,West,270,0.0,0.0,70,0.00,,SKC,0.02,VWS V14.01,2013-06-16 01:23:00,
2013-06-15 21:28:00,68.1,58.0,29.91,West,270,0.0,0.0,70,0.00,,SKC,0.02,VWS V14.01,2013-06-16 01:28:00,
2013-06-15 21:33:00,67.6,57.5,29.91,West,270,0.0,0.0,70,0.00,,SKC,0.02,VWS V14.01,2013-06-16 01:33:00,
2013-06-15 21:38:00,67.4,57.3,29.92,West,270,0.0,0.0,70,0.00,,SKC,0.02,VWS V14.01,2013-06-16 01:38:00,
2013-06-15 21:43:00,67.2,57.9,29.92,West,270,0.0,0.0,72,0.00,,SKC,0.02,VWS V14.01,2013-06-16 01:43:00,
2013-06-15 21:48:00,66.9,58.0,29.91,West,270,0.0,0.0,73,0.00,,SKC,0.02,VWS V14.01,2013-06-16 01:48:00,
2013-06-15 21:53:00,66.5,58.0,29.92,West,270,0.0,0.0,74,0.00,,SKC,0.02,VWS V14.01,2013-06-16 01:53:00,
2013-06-15 21:58:00,66.2,57.7,29.92,West,270,0.0,0.0,74,0.00,,SKC,0.02,VWS V14.01,2013-06-16 01:58:00,
2013-06-15 22:03:00,65.8,57.7,29.91,West,270,0.0,0.0,75,0.00,,SKC,0.02,VWS V14.01,2013-06-16 02:03:00,
2013-06-15 22:08:00,65.6,57.8,29.91,West,270,0.0,0.0,76,0.00,,SKC,0.02,VWS V14.01,2013-06-16 02:08:00,
2013-06-15 22:13:00,65.4,57.7,29.91,West,270,0.0,0.0,76,0.00,,SKC,0.02,VWS V14.01,2013-06-16 02:13:00,
2013-06-15 22:18:00,65.1,57.7,29.91,West,270,0.0,0.0,77,0.00,,SKC,0.02,VWS V14.01,2013-06-16 02:18:00,
2013-06-15 22:23:00,64.9,57.9,29.91,West,270,0.0,0.0,78,0.00,,SKC,0.02,VWS V14.01,2013-06-16 02:23:00,
2013-06-15 22:28:00,64.5,57.5,29.92,West,270,0.0,0.0,78,0.00,,SKC,0.02,VWS V14.01,2013-06-16 02:28:00,
2013-06-15 22:33:00,64.2,57.6,29.92,West,270,0.0,0.0,79,0.00,,SKC,0.02,VWS V14.01,2013-06-16 02:33:00,
2013-06-15 22:38:00,64.0,57.7,29.92,West,270,0.0,0.0,80,0.00,,SKC,0.02,VWS V14.01,2013-06-16 02:38:00,
2013-06-15 22:43:00,63.8,57.5,29.92,West,270,0.0,0.0,80,0.00,,SKC,0.02,VWS V14.01,2013-06-16 02:43:00,
2013-06-15 22:48:00,63.6,57.3,29.92,West,270,0.0,0.0,80,0.00,,SKC,0.02,VWS V14.01,2013-06-16 02:48:00,
2013-06-15 22:53:00,63.5,57.6,29.92,West,270,0.0,0.0,81,0.00,,SKC,0.02,VWS V14.01,2013-06-16 02:53:00,
2013-06-15 22:58:00,63.5,57.6,29.91,West,270,0.0,0.0,81,0.00,,SKC,0.02,VWS V14.01,2013-06-16 02:58:00,
2013-06-15 23:03:00,63.3,57.4,29.91,West,270,0.0,0.0,81,0.00,,SKC,0.02,VWS V14.01,2013-06-16 03:03:00,
2013-06-15 23:08:00,62.9,57.3,29.90,West,270,0.0,0.0,82,0.00,,SKC,0.02,VWS V14.01,2013-06-16 03:08:00,
2013-06-15 23:13:00,62.9,57.3,29.90,West,270,0.0,0.0,82,0.00,,SKC,0.02,VWS V14.01,2013-06-16 03:13:00,
2013-06-15 23:18:00,62.9,57.3,29.90,West,270,0.0,0.0,82,0.00,,SKC,0.02,VWS V14.01,2013-06-16 03:18:00,
2013-06-15 23:23:00,62.9,57.7,29.90,SW,225,0.0,0.0,83,0.00,,SKC,0.02,VWS V14.01,2013-06-16 03:23:00,
2013-06-15 23:28:00,63.3,58.1,29.90,SW,225,0.0,0.0,83,0.00,,SKC,0.02,VWS V14.01,2013-06-16 03:28:00,
2013-06-15 23:33:00,63.3,58.4,29.90,SW,225,0.0,0.0,84,0.00,,SKC,0.02,VWS V14.01,2013-06-16 03:33:00,
2013-06-15 23:38:00,63.3,58.4,29.90,SSW,202,0.0,0.0,84,0.00,,SKC,0.02,VWS V14.01,2013-06-16 03:38:00,
2013-06-15 23:43:00,63.3,58.4,29.91,WSW,248,0.0,0.0,84,0.00,,SKC,0.02,VWS V14.01,2013-06-16 03:43:00,
2013-06-15 23:49:00,63.3,58.4,29.91,WSW,248,0.0,0.0,84,0.00,,SKC,0.02,VWS V14.01,2013-06-16 03:49:00,
2013-06-15 23:54:00,63.3,58.4,29.91,WSW,248,0.0,0.0,84,0.00,,SKC,0.02,VWS V14.01,2013-06-16 03:54:00,
2013-06-15 23:59:00,63.3,58.4,29.91,WSW,248,0.0,0.0,84,0.00,,SKC,0.02,VWS V14.01,2013-06-16 03:59:00,